Time,TemperatureF,DewpointF,PressureIn,WindDirection,WindDirectionDegrees,WindSpeedMPH,WindSpeedGustMPH,Humidity,HourlyPrecipIn,Conditions,Clouds,dailyrainin,SoftwareType,DateUTC
2013-01-17 06:52:00,60.3,17.8,29.76,ESE,105,9.0,9.0,19,0.00,,,0.00,Wunderground v.1.15,2013-01-17 14:52:00,
2013-01-17 06:58:00,60.1,18.8,29.76,ESE,106,8.0,15.0,20,0.00,,,0.00,Wunderground v.1.15,2013-01-17 14:58:00,
2013-01-17 07:02:00,59.9,18.7,29.76,ENE,65,8.0,18.0,20,0.00,,,0.00,Wunderground v.1.15,2013-01-17 15:02:00,
2013-01-17 07:04:00,59.9,18.7,29.76,East,96,8.0,18.0,20,0.00,,,0.00,Wunderground v.1.15,2013-01-17 15:04:00,
2013-01-17 07:10:00,59.8,18.6,29.76,ESE,104,10.0,10.0,20,0.00,,,0.00,Wunderground v.1.15,2013-01-17 15:10:00,
2013-01-17 07:16:00,59.5,19.5,29.76,ENE,76,9.0,10.0,21,0.00,,,0.00,Wunderground v.1.15,2013-01-17 15:16:00,
2013-01-17 07:22:00,59.6,18.4,29.76,NE,51,10.0,13.0,20,0.00,,,0.00,Wunderground v.1.15,2013-01-17 15:22:00,
2013-01-17 07:27:00,59.7,18.5,29.77,East,81,11.0,18.0,20,0.00,,,0.00,Wunderground v.1.15,2013-01-17 15:27:00,
2013-01-17 07:33:00,59.9,18.7,29.77,ENE,58,10.0,13.0,20,0.00,,,0.00,Wunderground v.1.15,2013-01-17 15:33:00,
2013-01-17 07:39:00,60.0,18.8,29.77,ENE,61,9.0,14.0,20,0.00,,,0.00,Wunderground v.1.15,2013-01-17 15:39:00,
2013-01-17 09:05:00,67.7,18.3,29.81,East,89,8.0,8.0,15,0.00,,,0.00,Wunderground v.1.15,2013-01-17 17:05:00,
2013-01-17 09:11:00,68.0,17.0,29.81,NE,55,8.0,14.0,14,0.00,,,0.00,Wunderground v.1.15,2013-01-17 17:11:00,
2013-01-17 09:16:00,68.3,18.8,29.81,NNE,31,8.0,10.0,15,0.00,,,0.00,Wunderground v.1.15,2013-01-17 17:16:00,
2013-01-17 09:21:00,68.7,17.5,29.81,ESE,103,9.0,11.0,14,0.00,,,0.00,Wunderground v.1.15,2013-01-17 17:21:00,
2013-01-17 09:28:00,69.1,16.1,29.81,ENE,61,10.0,12.0,13,0.00,,,0.00,Wunderground v.1.15,2013-01-17 17:28:00,
2013-01-17 09:33:00,69.3,16.3,29.81,ENE,65,11.0,12.0,13,0.00,,,0.00,Wunderground v.1.15,2013-01-17 17:33:00,
2013-01-17 09:38:00,69.4,18.1,29.81,ENE,71,10.0,12.0,14,0.00,,,0.00,Wunderground v.1.15,2013-01-17 17:38:00,
2013-01-17 10:27:00,71.0,17.6,29.79,South,178,11.0,12.0,13,0.00,,,0.00,Wunderground v.1.15,2013-01-17 18:27:00,
2013-01-17 10:33:00,71.2,17.8,29.79,East,87,11.0,16.0,13,0.00,,,0.00,Wunderground v.1.15,2013-01-17 18:33:00,
2013-01-17 10:39:00,71.4,17.9,29.79,ENE,70,11.0,17.0,13,0.00,,,0.00,Wunderground v.1.15,2013-01-17 18:39:00,
2013-01-17 10:45:00,71.7,18.2,29.78,East,92,11.0,17.0,13,0.00,,,0.00,Wunderground v.1.15,2013-01-17 18:45:00,
2013-01-17 12:16:00,75.0,14.7,29.73,East,98,8.0,8.0,10,0.00,,,0.00,Wunderground v.1.15,2013-01-17 20:16:00,
2013-01-17 12:21:00,75.2,14.8,29.74,East,84,9.0,10.0,10,0.00,,,0.00,Wunderground v.1.15,2013-01-17 20:21:00,
2013-01-17 12:26:00,75.2,14.8,29.73,NE,48,10.0,10.0,10,0.00,,,0.00,Wunderground v.1.15,2013-01-17 20:26:00,
2013-01-17 12:31:00,75.3,14.9,29.73,SE,129,9.0,10.0,10,0.00,,,0.00,Wunderground v.1.15,2013-01-17 20:31:00,
2013-01-17 12:36:00,75.4,15.0,29.73,NNW,348,9.0,9.0,10,0.00,,,0.00,Wunderground v.1.15,2013-01-17 20:36:00,
2013-01-17 12:41:00,75.5,17.3,29.73,NNE,15,10.0,13.0,11,0.00,,,0.00,Wunderground v.1.15,2013-01-17 20:41:00,
2013-01-17 14:03:00,75.7,12.8,29.70,WNW,296,9.0,9.0,9,0.00,,,0.00,Wunderground v.1.15,2013-01-17 22:03:00,
2013-01-17 14:09:00,75.7,12.8,29.70,ENE,75,9.0,14.0,9,0.00,,,0.00,Wunderground v.1.15,2013-01-17 22:09:00,
2013-01-17 14:14:00,75.6,12.7,29.69,East,80,10.0,15.0,9,0.00,,,0.00,Wunderground v.1.15,2013-01-17 22:14:00,
2013-01-17 14:20:00,75.3,12.5,29.69,NE,46,11.0,15.0,9,0.00,,,0.00,Wunderground v.1.15,2013-01-17 22:20:00,
2013-01-17 14:26:00,75.2,12.4,29.69,ENE,71,11.0,12.0,9,0.00,,,0.00,Wunderground v.1.15,2013-01-17 22:26:00,
2013-01-17 16:45:00,69.8,12.9,29.71,NE,51,7.0,13.0,11,0.00,,,0.00,Wunderground v.1.15,2013-01-18 00:45:00,
2013-01-17 16:51:00,69.4,14.5,29.72,ENE,74,7.0,14.0,12,0.00,,,0.00,Wunderground v.1.15,2013-01-18 00:51:00,
2013-01-17 16:57:00,69.1,12.3,29.72,East,98,7.0,10.0,11,0.00,,,0.00,Wunderground v.1.15,2013-01-18 00:57:00,
2013-01-17 17:03:00,68.7,12.0,29.72,East,79,7.0,9.0,11,0.00,,,0.00,Wunderground v.1.15,2013-01-18 01:03:00,
2013-01-17 18:21:00,63.3,14.8,29.74,NE,36,3.0,5.0,15,0.00,,,0.00,Wunderground v.1.15,2013-01-18 02:21:00,
2013-01-17 18:26:00,63.4,14.9,29.74,East,90,4.0,6.0,15,0.00,,,0.00,Wunderground v.1.15,2013-01-18 02:26:00,
2013-01-17 18:31:00,63.9,13.7,29.74,NE,44,5.0,5.0,14,0.00,,,0.00,Wunderground v.1.15,2013-01-18 02:31:00,
2013-01-17 18:36:00,64.1,13.9,29.75,NE,51,5.0,6.0,14,0.00,,,0.00,Wunderground v.1.15,2013-01-18 02:36:00,
2013-01-17 18:42:00,64.3,14.0,29.75,North,9,5.0,5.0,14,0.00,,,0.00,Wunderground v.1.15,2013-01-18 02:42:00,
2013-01-17 18:47:00,64.2,13.9,29.75,NNE,27,5.0,6.0,14,0.00,,,0.00,Wunderground v.1.15,2013-01-18 02:47:00,
2013-01-17 19:16:00,63.5,13.4,29.75,ENE,69,4.0,4.0,14,0.00,,,0.00,Wunderground v.1.15,2013-01-18 03:16:00,
2013-01-17 19:22:00,63.3,14.8,29.75,ENE,63,3.0,8.0,15,0.00,,,0.00,Wunderground v.1.15,2013-01-18 03:22:00,
2013-01-17 19:27:00,62.9,14.5,29.75,ENE,77,3.0,4.0,15,0.00,,,0.00,Wunderground v.1.15,2013-01-18 03:27:00,
2013-01-17 19:33:00,62.3,15.5,29.75,ENE,57,4.0,5.0,16,0.00,,,0.00,Wunderground v.1.15,2013-01-18 03:33:00,
2013-01-17 19:41:00,61.6,16.3,29.76,NE,55,5.0,6.0,17,0.00,,,0.00,Wunderground v.1.15,2013-01-18 03:41:00,
2013-01-17 19:47:00,61.3,16.1,29.75,NE,42,5.0,5.0,17,0.00,,,0.00,Wunderground v.1.15,2013-01-18 03:47:00,
2013-01-17 19:52:00,61.2,16.0,29.75,NE,38,5.0,11.0,17,0.00,,,0.00,Wunderground v.1.15,2013-01-18 03:52:00,
2013-01-17 19:57:00,61.1,15.9,29.76,NE,56,5.0,6.0,17,0.00,,,0.00,Wunderground v.1.15,2013-01-18 03:57:00,
2013-01-17 20:03:00,61.0,15.8,29.76,East,94,5.0,8.0,17,0.00,,,0.00,Wunderground v.1.15,2013-01-18 04:03:00,
2013-01-17 21:11:00,60.0,16.3,29.76,ENE,61,4.0,4.0,18,0.00,,,0.00,Wunderground v.1.15,2013-01-18 05:11:00,
2013-01-17 21:14:00,60.0,16.3,29.76,ENE,70,4.0,4.0,18,0.00,,,0.00,Wunderground v.1.15,2013-01-18 05:14:00,
2013-01-17 21:15:00,60.0,16.3,29.76,East,96,4.0,5.0,18,0.00,,,0.00,Wunderground v.1.15,2013-01-18 05:15:00,
2013-01-17 21:16:00,60.0,16.3,29.76,ENE,67,4.0,7.0,18,0.00,,,0.00,Wunderground v.1.15,2013-01-18 05:16:00,
2013-01-17 21:21:00,60.1,16.4,29.76,NE,54,4.0,6.0,18,0.00,,,0.00,Wunderground v.1.15,2013-01-18 05:21:00,
2013-01-17 21:27:00,60.2,16.5,29.76,ENE,77,5.0,6.0,18,0.00,,,0.00,Wunderground v.1.15,2013-01-18 05:27:00,
2013-01-17 21:33:00,60.2,16.5,29.76,ENE,70,4.0,7.0,18,0.00,,,0.00,Wunderground v.1.15,2013-01-18 05:33:00,
2013-01-17 21:38:00,60.0,16.3,29.76,ENE,63,4.0,9.0,18,0.00,,,0.00,Wunderground v.1.15,2013-01-18 05:38:00,
2013-01-17 21:43:00,60.0,16.3,29.76,ENE,64,4.0,8.0,18,0.00,,,0.00,Wunderground v.1.15,2013-01-18 05:43:00,